Time;durP1;ratioP1;P1;durP2;ratioP2;P2;SDS_P1;SDS_P2;PMS_P1;PMS_P2;Temp;Humidity;BMP_temperature;BMP_pressure;BME280_temperature;BME280_humidity;BME280_pressure;Samples;Min_cycle;Max_cycle;Signal;HPM_P1;HPM_P2
2023/03/20 00:02:19;;;;;;;;;;;;;;;4.85;84.85;101369.94;5121898;28;19912;-70
2023/03/20 00:04:45;;;;;;;;;;;;;;;4.85;83.39;101366.47;5122012;28;19951;-70
2023/03/20 00:07:11;;;;;;;;;;;;;;;4.86;84.03;101365.50;5122661;28;19992;-70
2023/03/20 00:09:37;;;;;;;;;;;;;;;4.86;83.83;101358.44;5121610;28;19916;-70
2023/03/20 00:12:02;;;;;;;;;;;;;;;4.89;83.58;101360.00;5120787;28;20022;-69
2023/03/20 00:14:28;;;;;;;;;;;;;;;4.87;84.37;101364.53;5120158;28;19911;-70
2023/03/20 00:16:53;;;;;;;;;;;;;;;4.82;83.66;101364.88;5119827;28;20401;-71
2023/03/20 00:19:23;;;;;;;;;;;;;;;4.76;85.13;101362.69;5120228;28;20411;-70
2023/03/20 00:21:49;;;;;;;;;;;;;;;4.70;86.14;101355.22;5103300;28;19919;-69
2023/03/20 00:24:15;;;;;;;;;;;;;;;4.69;85.42;101360.63;5121218;28;20006;-70
2023/03/20 00:26:41;;;;;;;;;;;;;;;4.72;84.05;101355.13;5121403;28;20004;-71
2023/03/20 00:29:11;;;;;;;;;;;;;;;4.73;85.31;101359.44;5120604;28;19919;-71
2023/03/20 00:31:38;;;;;;;;;;;;;;;4.72;85.85;101357.75;5119590;28;19920;-71
2023/03/20 00:34:11;;;;;;;;;;;;;;;4.74;84.63;101356.69;5119028;28;19915;-68
2023/03/20 00:36:36;;;;;;;;;;;;;;;4.79;85.35;101359.00;5119230;28;19922;-72
2023/03/20 00:39:01;;;;;;;;;;;;;;;4.85;85.08;101353.25;5118992;28;20007;-71
2023/03/20 00:41:32;;;;;;;;;;;;;;;4.85;84.79;101350.63;5118794;28;19912;-70
2023/03/20 00:44:02;;;;;;;;;;;;;;;4.86;84.29;101347.03;5118957;28;19911;-70
2023/03/20 00:46:30;;;;;;;;;;;;;;;4.88;83.76;101347.75;5119074;28;19918;-71
2023/03/20 00:48:56;;;;;;;;;;;;;;;4.89;83.93;101347.66;5115493;28;20364;-70
2023/03/20 00:51:21;;;;;;;;;;;;;;;4.82;85.02;101337.66;5115597;28;19944;-70
2023/03/20 00:53:47;;;;;;;;;;;;;;;4.83;84.69;101336.69;5115318;28;19951;-71
2023/03/20 00:56:29;;;;;;;;;;;;;;;4.88;84.04;101337.19;5115591;28;19912;-70
2023/03/20 00:58:54;;;;;;;;;;;;;;;4.88;84.51;101338.03;5115790;28;19918;-71
2023/03/20 01:01:20;;;;;;;;;;;;;;;4.85;84.70;101333.00;5115630;28;20018;-70
2023/03/20 01:03:45;;;;;;;;;;;;;;;4.87;85.59;101327.59;5115299;28;19912;-70
2023/03/20 01:06:11;;;;;;;;;;;;;;;4.88;85.01;101331.94;5115286;28;19920;-70
2023/03/20 01:08:36;;;;;;;;;;;;;;;4.87;84.97;101331.09;5115436;28;19916;-70
2023/03/20 01:11:02;;;;;;;;;;;;;;;4.89;85.38;101320.41;5115417;28;19919;-72
2023/03/20 01:13:28;;;;;;;;;;;;;;;4.91;84.66;101327.25;5115329;28;19967;-71
2023/03/20 01:15:55;;;;;;;;;;;;;;;4.94;85.12;101316.50;5115181;28;19941;-69
2023/03/20 01:18:21;;;;;;;;;;;;;;;4.92;85.61;101315.78;5115532;28;19912;-73
2023/03/20 01:20:46;;;;;;;;;;;;;;;4.88;86.07;101316.09;5115206;28;20371;-71
2023/03/20 01:23:12;;;;;;;;;;;;;;;4.84;86.05;101314.63;5115498;28;19911;-71
2023/03/20 01:25:38;;;;;;;;;;;;;;;4.81;86.39;101310.44;5115848;28;19912;-70
2023/03/20 01:28:11;;;;;;;;;;;;;;;4.82;86.32;101316.53;5116274;28;19968;-71
2023/03/20 01:30:37;;;;;;;;;;;;;;;4.85;86.46;101311.03;5097146;28;19961;-71
2023/03/20 01:33:10;;;;;;;;;;;;;;;4.86;86.21;101321.47;5115019;28;19916;-71
2023/03/20 01:35:36;;;;;;;;;;;;;;;4.90;85.51;101316.81;5114949;28;19954;-71
2023/03/20 01:38:01;;;;;;;;;;;;;;;4.88;86.63;101316.09;5115323;28;20267;-70
2023/03/20 01:40:31;;;;;;;;;;;;;;;4.84;86.81;101304.06;5115084;28;19958;-70
2023/03/20 01:42:57;;;;;;;;;;;;;;;4.83;86.28;101307.66;5115153;28;19934;-70
2023/03/20 01:45:24;;;;;;;;;;;;;;;4.84;86.17;101309.34;5115278;28;20317;-70
2023/03/20 01:47:50;;;;;;;;;;;;;;;4.83;86.59;101295.31;5115470;28;19912;-70
2023/03/20 01:50:16;;;;;;;;;;;;;;;4.80;87.19;101297.34;5115096;28;19934;-70
2023/03/20 01:52:41;;;;;;;;;;;;;;;4.73;88.21;101290.84;5115006;28;19980;-69
2023/03/20 01:55:06;;;;;;;;;;;;;;;4.72;89.21;101294.44;5115260;28;20349;-72
2023/03/20 01:57:32;;;;;;;;;;;;;;;4.72;88.84;101289.16;5122119;28;19922;-70
2023/03/20 01:59:57;;;;;;;;;;;;;;;4.73;88.60;101285.56;5139146;28;19904;-70
2023/03/20 02:02:25;;;;;;;;;;;;;;;4.76;88.45;101285.34;5139978;28;19991;-70
2023/03/20 02:04:54;;;;;;;;;;;;;;;4.78;88.44;101283.41;5115900;28;19911;-70
2023/03/20 02:07:22;;;;;;;;;;;;;;;4.76;88.71;101282.69;5122462;28;19915;-70
2023/03/20 02:09:48;;;;;;;;;;;;;;;4.77;88.29;101284.38;5096001;28;20367;-70
2023/03/20 02:12:14;;;;;;;;;;;;;;;4.78;88.17;101284.25;5096548;28;19912;-70
2023/03/20 02:14:40;;;;;;;;;;;;;;;4.82;88.71;101290.16;5114439;28;19919;-70
2023/03/20 02:17:25;;;;;;;;;;;;;;;4.80;88.87;101277.06;5099622;28;20274;-70
2023/03/20 02:20:09;;;;;;;;;;;;;;;4.78;88.65;101272.88;5096684;28;20006;-70
2023/03/20 02:22:43;;;;;;;;;;;;;;;4.70;89.13;101259.41;5114812;28;19919;-70
2023/03/20 02:25:26;;;;;;;;;;;;;;;4.68;87.94;101261.31;5114144;28;19912;-71
2023/03/20 02:28:14;;;;;;;;;;;;;;;4.71;87.86;101266.38;5114184;28;19920;-70
2023/03/20 02:30:45;;;;;;;;;;;;;;;4.72;88.74;101246.94;5114516;28;19943;-70
2023/03/20 02:33:10;;;;;;;;;;;;;;;4.62;88.75;101242.31;5114414;28;19916;-71
2023/03/20 02:35:55;;;;;;;;;;;;;;;4.57;88.84;101249.72;5098761;28;20345;-72
2023/03/20 02:38:20;;;;;;;;;;;;;;;4.50;89.18;101259.06;5116571;28;19911;-71
2023/03/20 02:40:57;;;;;;;;;;;;;;;4.43;88.89;101255.19;5116010;28;19925;-71
2023/03/20 02:43:32;;;;;;;;;;;;;;;4.32;89.24;101240.13;5114900;28;19911;-70
2023/03/20 02:46:05;;;;;;;;;;;;;;;4.19;90.06;101239.31;5114035;28;19916;-70
2023/03/20 02:48:36;;;;;;;;;;;;;;;4.08;89.81;101246.31;5114098;28;19919;-70
2023/03/20 02:51:04;;;;;;;;;;;;;;;3.99;90.08;101232.81;5114561;28;19912;-70
2023/03/20 02:53:35;;;;;;;;;;;;;;;3.93;89.78;101237.69;5114278;28;19918;-70
2023/03/20 02:56:21;;;;;;;;;;;;;;;3.84;91.33;101247.09;5114053;28;19912;-71
2023/03/20 02:59:02;;;;;;;;;;;;;;;3.75;91.87;101234.53;5113932;28;20346;-71
2023/03/20 03:01:27;;;;;;;;;;;;;;;3.66;92.86;101241.31;5114014;28;19911;-70
2023/03/20 03:03:57;;;;;;;;;;;;;;;3.58;95.22;101232.25;5113471;28;19912;-73
2023/03/20 03:06:28;;;;;;;;;;;;;;;3.53;93.89;101243.13;5113428;28;19912;-71
2023/03/20 03:08:58;;;;;;;;;;;;;;;3.52;95.35;101244.06;5113582;28;19912;-70
2023/03/20 03:11:24;;;;;;;;;;;;;;;3.50;94.92;101248.59;5112598;28;20374;-71
2023/03/20 03:13:51;;;;;;;;;;;;;;;3.47;95.49;101242.69;5094995;28;19919;-70
2023/03/20 03:16:25;;;;;;;;;;;;;;;3.41;94.44;101243.94;5114649;28;19923;-69
2023/03/20 03:18:56;;;;;;;;;;;;;;;3.37;94.72;101245.94;5114299;28;19911;-70
2023/03/20 03:21:22;;;;;;;;;;;;;;;3.33;95.63;101257.63;5115837;28;20001;-71
2023/03/20 03:23:48;;;;;;;;;;;;;;;3.30;95.92;101254.38;5119807;28;19919;-75
2023/03/20 03:26:23;;;;;;;;;;;;;;;3.28;96.07;101245.75;5117878;28;19985;-73
2023/03/20 03:29:16;;;;;;;;;;;;;;;3.23;97.10;101253.09;5101377;28;19938;-70
2023/03/20 03:31:42;;;;;;;;;;;;;;;3.23;96.19;101253.94;5113831;28;20288;-69
2023/03/20 03:34:10;;;;;;;;;;;;;;;3.22;96.78;101251.41;5095105;28;20015;-72
2023/03/20 03:36:40;;;;;;;;;;;;;;;3.21;96.52;101253.22;5112809;28;19916;-75
2023/03/20 03:39:05;;;;;;;;;;;;;;;3.20;97.81;101238.38;5112655;28;19913;-71
2023/03/20 03:41:31;;;;;;;;;;;;;;;3.19;97.62;101236.69;5112654;28;19918;-71
2023/03/20 03:43:59;;;;;;;;;;;;;;;3.15;98.69;101240.44;5097664;28;19980;-69
2023/03/20 03:46:34;;;;;;;;;;;;;;;3.11;98.91;101233.69;5133192;28;20008;-71
2023/03/20 03:49:01;;;;;;;;;;;;;;;3.09;98.99;101232.97;5133198;28;19912;-71
2023/03/20 03:51:28;;;;;;;;;;;;;;;3.06;98.40;101238.44;5133351;28;19957;-71
2023/03/20 03:53:57;;;;;;;;;;;;;;;3.04;99.63;101232.44;5133163;28;19911;-70
2023/03/20 03:56:24;;;;;;;;;;;;;;;3.01;99.52;101230.00;5114870;28;20018;-70
2023/03/20 03:58:52;;;;;;;;;;;;;;;2.98;99.48;101228.44;5133200;28;19918;-71
2023/03/20 04:01:19;;;;;;;;;;;;;;;2.99;100.00;101231.91;5132760;28;19916;-70
2023/03/20 04:03:52;;;;;;;;;;;;;;;2.98;100.00;101217.06;5114595;28;19912;-72
2023/03/20 04:06:18;;;;;;;;;;;;;;;2.96;100.00;101203.19;5133099;28;19918;-71
2023/03/20 04:08:43;;;;;;;;;;;;;;;2.93;100.00;101213.91;5114555;28;19911;-70
2023/03/20 04:11:16;;;;;;;;;;;;;;;2.89;100.00;101204.50;5132751;28;19969;-69
2023/03/20 04:13:41;;;;;;;;;;;;;;;2.84;100.00;101198.72;5132985;28;19911;-67
2023/03/20 04:16:11;;;;;;;;;;;;;;;2.83;100.00;101202.28;5132317;28;20394;-70
2023/03/20 04:18:36;;;;;;;;;;;;;;;2.85;100.00;101195.13;5111949;28;19915;-67
2023/03/20 04:21:02;;;;;;;;;;;;;;;2.87;100.00;101195.88;5112597;28;19919;-68
2023/03/20 04:23:49;;;;;;;;;;;;;;;2.88;100.00;101195.78;5095883;28;19912;-66
2023/03/20 04:26:14;;;;;;;;;;;;;;;2.91;100.00;101194.75;5116645;28;19912;-66
2023/03/20 04:28:39;;;;;;;;;;;;;;;2.96;100.00;101197.91;5117200;28;19912;-69
2023/03/20 04:31:05;;;;;;;;;;;;;;;2.98;100.00;101201.28;5117052;28;20344;-66
2023/03/20 04:33:30;;;;;;;;;;;;;;;2.98;100.00;101190.75;5097630;28;20395;-65
2023/03/20 04:35:56;;;;;;;;;;;;;;;2.96;100.00;101196.13;5116136;28;19971;-68
2023/03/20 04:38:21;;;;;;;;;;;;;;;2.99;100.00;101192.44;5115695;28;19930;-67
2023/03/20 04:40:47;;;;;;;;;;;;;;;2.98;100.00;101199.50;5115724;28;20018;-68
2023/03/20 04:43:13;;;;;;;;;;;;;;;3.00;100.00;101191.50;5097626;28;19915;-70
2023/03/20 04:45:39;;;;;;;;;;;;;;;3.02;100.00;101186.97;5098937;28;19957;-69
2023/03/20 04:48:04;;;;;;;;;;;;;;;3.03;100.00;101183.38;5117255;28;19911;-71
2023/03/20 04:50:37;;;;;;;;;;;;;;;3.07;99.90;101184.84;5098565;28;20271;-65
2023/03/20 04:53:05;;;;;;;;;;;;;;;3.09;99.81;101182.97;5098062;28;20018;-66
2023/03/20 04:55:30;;;;;;;;;;;;;;;3.10;99.23;101184.66;5116308;28;19974;-66
2023/03/20 04:57:56;;;;;;;;;;;;;;;3.11;99.74;101186.34;5098252;28;20312;-67
2023/03/20 05:00:21;;;;;;;;;;;;;;;3.15;99.82;101190.44;5117854;28;20390;-69
2023/03/20 05:02:47;;;;;;;;;;;;;;;3.16;99.94;101178.97;5097303;28;19960;-69
2023/03/20 05:05:12;;;;;;;;;;;;;;;3.18;99.81;101179.72;5096873;28;19919;-68
2023/03/20 05:07:38;;;;;;;;;;;;;;;3.19;99.27;101178.78;5115509;28;19912;-67
2023/03/20 05:10:04;;;;;;;;;;;;;;;3.24;99.37;101178.47;5096845;28;20003;-70
2023/03/20 05:12:30;;;;;;;;;;;;;;;3.27;99.96;101175.63;5115021;28;20355;-70
2023/03/20 05:14:55;;;;;;;;;;;;;;;3.28;99.75;101172.88;5115462;28;19911;-69
2023/03/20 05:17:22;;;;;;;;;;;;;;;3.30;99.88;101170.97;5096980;28;19912;-68
2023/03/20 05:19:48;;;;;;;;;;;;;;;3.30;99.82;101164.88;5114932;28;19948;-69
2023/03/20 05:22:14;;;;;;;;;;;;;;;3.31;100.00;101166.56;5114681;28;20391;-67
2023/03/20 05:24:40;;;;;;;;;;;;;;;3.34;100.00;101161.06;5114678;28;19918;-69
2023/03/20 05:27:06;;;;;;;;;;;;;;;3.37;100.00;101166.97;5115085;28;19998;-70
2023/03/20 05:29:31;;;;;;;;;;;;;;;3.44;100.00;101167.38;5096580;28;19965;-68
2023/03/20 05:31:56;;;;;;;;;;;;;;;3.50;100.00;101171.41;5079936;28;19919;-67
2023/03/20 05:34:21;;;;;;;;;;;;;;;3.55;99.69;101175.38;5114615;28;19923;-67
2023/03/20 05:36:47;;;;;;;;;;;;;;;3.61;100.00;101174.09;5114965;28;19916;-65
2023/03/20 05:39:12;;;;;;;;;;;;;;;3.66;99.45;101172.81;5114742;28;19918;-70
2023/03/20 05:41:38;;;;;;;;;;;;;;;3.71;98.81;101172.50;5114823;28;19911;-67
2023/03/20 05:44:03;;;;;;;;;;;;;;;3.73;98.68;101167.97;5114494;28;20212;-68
2023/03/20 05:46:28;;;;;;;;;;;;;;;3.75;98.52;101166.06;5114778;28;19919;-68
2023/03/20 05:48:54;;;;;;;;;;;;;;;3.73;98.43;101167.97;5114659;28;19912;-68
2023/03/20 05:51:19;;;;;;;;;;;;;;;3.74;98.81;101152.03;5114469;28;19913;-68
2023/03/20 05:53:45;;;;;;;;;;;;;;;3.80;98.70;101163.97;5114433;28;19927;-68
2023/03/20 05:56:10;;;;;;;;;;;;;;;3.86;98.20;101163.53;5096260;28;19912;-69
2023/03/20 05:58:35;;;;;;;;;;;;;;;3.91;98.49;101166.66;5114977;28;19911;-66
2023/03/20 06:01:01;;;;;;;;;;;;;;;3.98;98.04;101162.63;5114497;28;20009;-68
2023/03/20 06:03:26;;;;;;;;;;;;;;;4.01;98.26;101159.75;5114401;28;20014;-68
2023/03/20 06:05:51;;;;;;;;;;;;;;;4.07;97.67;101160.31;5114317;28;19911;-72
2023/03/20 06:08:17;;;;;;;;;;;;;;;4.08;97.57;101156.72;5114489;28;19991;-73
2023/03/20 06:10:42;;;;;;;;;;;;;;;4.15;97.98;101158.78;5113946;28;19932;-68
2023/03/20 06:13:07;;;;;;;;;;;;;;;4.23;96.84;101151.16;5113556;28;20366;-68
2023/03/20 06:15:33;;;;;;;;;;;;;;;4.27;97.61;101149.97;5114161;28;20347;-70
2023/03/20 06:17:58;;;;;;;;;;;;;;;4.38;97.50;101151.00;5114354;28;19912;-67
2023/03/20 06:20:24;;;;;;;;;;;;;;;4.55;96.88;101154.03;5114380;28;19911;-67
2023/03/20 06:22:50;;;;;;;;;;;;;;;4.75;95.98;101141.16;5113876;28;19915;-68
2023/03/20 06:25:15;;;;;;;;;;;;;;;4.85;95.07;101142.13;5113724;28;19961;-69
2023/03/20 06:27:41;;;;;;;;;;;;;;;4.94;94.04;101141.47;5114241;28;20419;-66
2023/03/20 06:30:06;;;;;;;;;;;;;;;5.03;93.98;101135.47;5116418;27;19916;-67
2023/03/20 06:32:32;;;;;;;;;;;;;;;5.06;93.24;101135.22;5123779;27;19915;-67
2023/03/20 06:34:57;;;;;;;;;;;;;;;5.06;93.46;101135.22;5126629;27;20367;-69
2023/03/20 06:37:23;;;;;;;;;;;;;;;5.00;93.13;101135.72;5124401;27;19912;-69
2023/03/20 06:39:48;;;;;;;;;;;;;;;4.97;93.74;101136.78;5124409;27;19965;-67
2023/03/20 06:42:14;;;;;;;;;;;;;;;4.94;93.44;101133.53;5122496;27;20014;-66
2023/03/20 06:44:40;;;;;;;;;;;;;;;4.86;93.89;101131.47;5126141;27;19912;-68
2023/03/20 06:47:05;;;;;;;;;;;;;;;4.80;94.06;101128.47;5106287;27;20355;-66
2023/03/20 06:49:30;;;;;;;;;;;;;;;4.87;94.51;101116.47;5128131;27;19911;-67
2023/03/20 06:51:56;;;;;;;;;;;;;;;4.91;93.99;101125.81;5124377;27;20423;-67
2023/03/20 06:54:21;;;;;;;;;;;;;;;4.87;94.38;101124.38;5119347;27;19942;-66
2023/03/20 06:56:46;;;;;;;;;;;;;;;4.89;94.46;101125.09;5102562;28;19920;-68
2023/03/20 06:59:12;;;;;;;;;;;;;;;5.07;94.59;101121.06;5108171;27;19936;-67
2023/03/20 07:01:38;;;;;;;;;;;;;;;5.34;93.59;101122.53;5123822;27;19919;-67
2023/03/20 07:04:03;;;;;;;;;;;;;;;5.66;93.81;101117.34;5127823;27;19915;-68
2023/03/20 07:06:29;;;;;;;;;;;;;;;5.89;92.13;101119.84;5122128;27;19956;-68
2023/03/20 07:08:54;;;;;;;;;;;;;;;6.06;90.75;101109.69;5124689;27;19912;-68
2023/03/20 07:11:19;;;;;;;;;;;;;;;6.27;91.31;101107.94;5123121;27;20351;-68
2023/03/20 07:13:45;;;;;;;;;;;;;;;6.43;89.70;101108.38;5123745;27;19911;-67
2023/03/20 07:16:10;;;;;;;;;;;;;;;6.58;89.12;101102.75;5121344;27;19918;-69
2023/03/20 07:18:35;;;;;;;;;;;;;;;6.67;88.14;101102.00;5119843;27;19990;-67
2023/03/20 07:21:02;;;;;;;;;;;;;;;6.64;87.41;101099.59;5124869;27;19919;-67
2023/03/20 07:23:31;;;;;;;;;;;;;;;6.59;87.53;101107.09;5124370;27;19970;-68
2023/03/20 07:25:57;;;;;;;;;;;;;;;6.60;87.73;101099.00;5119404;27;19926;-67
2023/03/20 07:28:23;;;;;;;;;;;;;;;6.58;87.85;101094.81;5121048;27;20284;-67
2023/03/20 07:30:48;;;;;;;;;;;;;;;6.48;88.04;101100.91;5122326;27;19915;-67
2023/03/20 07:33:14;;;;;;;;;;;;;;;6.37;88.03;101092.19;5123880;27;19960;-68
2023/03/20 07:35:39;;;;;;;;;;;;;;;6.23;88.89;101090.66;5122088;28;19916;-68
2023/03/20 07:38:05;;;;;;;;;;;;;;;6.15;90.12;101098.41;5121448;28;19954;-69
2023/03/20 07:40:31;;;;;;;;;;;;;;;6.13;91.10;101095.88;5113364;28;19912;-66
2023/03/20 07:42:57;;;;;;;;;;;;;;;6.27;91.20;101096.53;5094726;28;20362;-67
2023/03/20 07:45:22;;;;;;;;;;;;;;;6.42;89.79;101093.47;5112796;28;19953;-66
2023/03/20 07:47:47;;;;;;;;;;;;;;;6.60;89.67;101087.59;5112708;28;19911;-65
2023/03/20 07:50:13;;;;;;;;;;;;;;;6.77;89.15;101093.16;5112705;28;19965;-67
2023/03/20 07:52:39;;;;;;;;;;;;;;;6.86;88.42;101080.94;5112583;28;19911;-68
2023/03/20 07:55:04;;;;;;;;;;;;;;;6.92;87.77;101083.06;5112795;28;19911;-71
2023/03/20 07:57:30;;;;;;;;;;;;;;;6.99;87.47;101073.63;5114223;28;20279;-68
2023/03/20 07:59:55;;;;;;;;;;;;;;;6.93;86.76;101089.19;5116884;28;20412;-68
2023/03/20 08:02:21;;;;;;;;;;;;;;;6.73;86.95;101082.97;5116571;28;19916;-67
2023/03/20 08:04:46;;;;;;;;;;;;;;;6.65;87.57;101075.69;5117184;28;19945;-69
2023/03/20 08:07:11;;;;;;;;;;;;;;;6.55;88.45;101069.47;5117390;28;19912;-68
2023/03/20 08:09:37;;;;;;;;;;;;;;;6.59;88.73;101064.75;5117646;28;20278;-68
2023/03/20 08:12:03;;;;;;;;;;;;;;;6.65;88.24;101061.56;5117359;28;20480;-68
2023/03/20 08:14:28;;;;;;;;;;;;;;;6.79;87.94;101056.81;5117769;28;19911;-67
2023/03/20 08:16:54;;;;;;;;;;;;;;;6.77;87.04;101055.25;5123124;28;19982;-68
2023/03/20 08:19:19;;;;;;;;;;;;;;;6.82;88.00;101053.06;5119634;28;19911;-67
2023/03/20 08:21:44;;;;;;;;;;;;;;;6.98;86.63;101056.06;5117065;28;19911;-69
2023/03/20 08:24:10;;;;;;;;;;;;;;;6.99;86.57;101052.44;5117525;28;19957;-67
2023/03/20 08:26:35;;;;;;;;;;;;;;;6.94;87.26;101046.72;5117250;28;19912;-67
2023/03/20 08:29:01;;;;;;;;;;;;;;;7.01;86.80;101047.84;5117619;28;19937;-67
2023/03/20 08:31:26;;;;;;;;;;;;;;;7.11;86.63;101046.09;5117588;28;19912;-67
2023/03/20 08:33:53;;;;;;;;;;;;;;;7.20;85.79;101054.19;5126223;27;19922;-67
2023/03/20 08:36:19;;;;;;;;;;;;;;;7.27;85.10;101050.91;5139387;27;19915;-67
2023/03/20 08:38:45;;;;;;;;;;;;;;;7.31;84.48;101046.16;5138139;27;20362;-66
2023/03/20 08:41:11;;;;;;;;;;;;;;;7.27;84.71;101042.09;5138582;27;19919;-67
2023/03/20 08:43:36;;;;;;;;;;;;;;;7.33;84.96;101038.91;5138863;27;19911;-67
2023/03/20 08:46:02;;;;;;;;;;;;;;;7.50;85.27;101045.34;5121010;27;20278;-68
2023/03/20 08:48:27;;;;;;;;;;;;;;;7.61;84.36;101038.16;5138386;27;19938;-69
2023/03/20 08:50:53;;;;;;;;;;;;;;;7.76;84.22;101042.06;5137827;27;20330;-66
2023/03/20 08:53:19;;;;;;;;;;;;;;;7.86;83.35;101036.78;5137409;27;19911;-66
2023/03/20 08:55:48;;;;;;;;;;;;;;;7.90;82.73;101040.84;5137896;27;20018;-68
2023/03/20 08:58:14;;;;;;;;;;;;;;;7.91;82.49;101033.72;5138462;27;20283;-71
2023/03/20 09:00:40;;;;;;;;;;;;;;;7.93;81.63;101037.06;5102009;27;19919;-70
2023/03/20 09:03:06;;;;;;;;;;;;;;;7.97;82.23;101038.47;5136027;27;19966;-68
2023/03/20 09:05:31;;;;;;;;;;;;;;;8.02;82.21;101037.06;5117870;27;20444;-66
2023/03/20 09:07:56;;;;;;;;;;;;;;;8.07;82.35;101034.81;5135983;27;19919;-68
2023/03/20 09:10:22;;;;;;;;;;;;;;;8.22;81.99;101024.66;5135433;27;19919;-65
2023/03/20 09:12:47;;;;;;;;;;;;;;;8.46;82.08;101028.72;5136189;27;20474;-67
2023/03/20 09:15:12;;;;;;;;;;;;;;;8.56;79.84;101026.84;5136156;27;19912;-65
2023/03/20 09:17:38;;;;;;;;;;;;;;;8.31;79.35;101026.44;5135866;27;19926;-65
2023/03/20 09:20:04;;;;;;;;;;;;;;;8.20;80.11;101017.81;5117319;27;20001;-65
2023/03/20 09:22:29;;;;;;;;;;;;;;;8.27;80.17;101014.44;5135626;27;19911;-65
2023/03/20 09:24:55;;;;;;;;;;;;;;;8.41;80.19;101017.69;5135457;27;19919;-65
2023/03/20 09:27:20;;;;;;;;;;;;;;;8.57;80.00;101012.59;5135486;27;19934;-67
2023/03/20 09:29:45;;;;;;;;;;;;;;;8.66;78.88;101004.59;5135372;27;20237;-66
2023/03/20 09:32:11;;;;;;;;;;;;;;;8.62;77.93;100999.72;5135378;27;20014;-66
2023/03/20 09:35:04;;;;;;;;;;;;;;;8.62;79.64;100991.75;5135690;27;20292;-72
2023/03/20 09:37:29;;;;;;;;;;;;;;;8.68;78.98;100988.56;5135065;27;19915;-66
2023/03/20 09:39:55;;;;;;;;;;;;;;;8.76;78.25;100986.00;5133714;27;19911;-66
2023/03/20 09:42:20;;;;;;;;;;;;;;;8.98;78.46;100983.00;5134147;27;19988;-66
2023/03/20 09:44:54;;;;;;;;;;;;;;;9.05;76.92;100977.06;5134508;27;20399;-65
2023/03/20 09:47:20;;;;;;;;;;;;;;;9.04;77.39;100975.41;5134531;27;20366;-67
2023/03/20 09:49:45;;;;;;;;;;;;;;;8.99;76.27;100974.03;5134680;27;19957;-66
2023/03/20 09:52:14;;;;;;;;;;;;;;;9.02;77.24;100966.75;5135043;27;19918;-66
2023/03/20 09:54:40;;;;;;;;;;;;;;;8.86;76.19;100968.22;5135454;27;20362;-66
2023/03/20 09:57:14;;;;;;;;;;;;;;;8.64;77.06;100968.56;5135073;27;19911;-67
2023/03/20 09:59:40;;;;;;;;;;;;;;;8.63;77.59;100956.28;5135115;27;20314;-66
2023/03/20 10:02:11;;;;;;;;;;;;;;;8.64;76.79;100960.59;5135176;27;20007;-66
2023/03/20 10:04:37;;;;;;;;;;;;;;;8.80;77.99;100947.56;5135035;27;19919;-67
2023/03/20 10:07:04;;;;;;;;;;;;;;;8.99;76.30;100947.47;5134981;27;19964;-68
2023/03/20 10:09:33;;;;;;;;;;;;;;;9.10;75.84;100940.28;5134759;27;20270;-67
2023/03/20 10:12:07;;;;;;;;;;;;;;;9.08;76.08;100928.97;5134639;27;19941;-65
2023/03/20 10:14:51;;;;;;;;;;;;;;;9.25;75.46;100928.13;5135044;27;19941;-67
2023/03/20 10:17:16;;;;;;;;;;;;;;;9.39;74.59;100927.63;5134866;27;19911;-67
2023/03/20 10:19:44;;;;;;;;;;;;;;;9.52;74.84;100928.09;5134743;27;19956;-67
2023/03/20 10:22:29;;;;;;;;;;;;;;;9.37;74.64;100918.97;5133630;27;19911;-65
2023/03/20 10:25:03;;;;;;;;;;;;;;;9.32;74.30;100918.59;5133664;27;20451;-65
2023/03/20 10:27:32;;;;;;;;;;;;;;;9.34;75.31;100910.47;5134673;27;19912;-67
2023/03/20 10:30:10;;;;;;;;;;;;;;;9.25;74.88;100904.22;5134768;27;19922;-65
2023/03/20 10:32:51;;;;;;;;;;;;;;;9.10;75.23;100900.41;5134408;27;20282;-65
2023/03/20 10:35:17;;;;;;;;;;;;;;;8.91;76.16;100891.56;5134354;27;19915;-66
2023/03/20 10:37:42;;;;;;;;;;;;;;;8.84;76.60;100895.81;5134766;27;20273;-67
2023/03/20 10:40:28;;;;;;;;;;;;;;;8.83;76.97;100891.47;5134371;27;19911;-67
2023/03/20 10:42:56;;;;;;;;;;;;;;;8.82;77.22;100884.50;5134080;27;19912;-66
2023/03/20 10:45:21;;;;;;;;;;;;;;;8.83;77.35;100883.50;5133848;27;19984;-65
2023/03/20 10:47:50;;;;;;;;;;;;;;;8.84;77.08;100882.53;5134013;27;20431;-66
2023/03/20 10:50:17;;;;;;;;;;;;;;;8.80;76.85;100873.19;5134268;27;20367;-69
2023/03/20 10:52:44;;;;;;;;;;;;;;;8.76;76.71;100873.63;5134078;27;19911;-69
2023/03/20 10:55:13;;;;;;;;;;;;;;;8.81;77.24;100874.88;5134055;27;20343;-66
2023/03/20 10:57:41;;;;;;;;;;;;;;;8.82;77.30;100865.91;5134474;27;19919;-66
2023/03/20 11:00:11;;;;;;;;;;;;;;;8.77;77.67;100868.19;5134222;27;19916;-66
2023/03/20 11:02:36;;;;;;;;;;;;;;;8.82;77.62;100862.41;5133899;27;20255;-65
2023/03/20 11:05:17;;;;;;;;;;;;;;;8.84;77.54;100860.44;5133674;27;19917;-65
2023/03/20 11:07:43;;;;;;;;;;;;;;;8.89;77.76;100850.22;5115676;27;19958;-67
2023/03/20 11:10:15;;;;;;;;;;;;;;;8.96;77.33;100846.81;5134053;27;19911;-67
2023/03/20 11:12:42;;;;;;;;;;;;;;;9.02;76.59;100833.94;5115844;27;20003;-65
2023/03/20 11:15:21;;;;;;;;;;;;;;;9.07;76.53;100829.00;5133472;27;20455;-67
2023/03/20 11:17:57;;;;;;;;;;;;;;;9.06;76.96;100832.63;5133631;27;20270;-66
2023/03/20 11:20:24;;;;;;;;;;;;;;;9.09;77.20;100830.50;5133568;27;19911;-64
2023/03/20 11:22:55;;;;;;;;;;;;;;;9.12;76.24;100827.53;5133460;27;20266;-65
2023/03/20 11:25:35;;;;;;;;;;;;;;;9.14;76.65;100832.72;5133486;27;19912;-70
2023/03/20 11:28:19;;;;;;;;;;;;;;;9.19;76.85;100828.59;5134236;27;20594;-66
2023/03/20 11:30:45;;;;;;;;;;;;;;;9.31;76.37;100818.59;5115173;27;19918;-71
2023/03/20 11:33:10;;;;;;;;;;;;;;;9.43;76.40;100822.66;5133283;27;20346;-67
2023/03/20 11:35:36;;;;;;;;;;;;;;;9.50;76.04;100815.75;5114920;27;19915;-68
2023/03/20 11:38:15;;;;;;;;;;;;;;;9.56;76.29;100812.50;5115257;28;20004;-68
2023/03/20 11:40:41;;;;;;;;;;;;;;;9.52;75.70;100805.78;5133232;28;20290;-68
2023/03/20 11:43:11;;;;;;;;;;;;;;;9.54;75.83;100806.50;5115301;28;19923;-67
2023/03/20 11:45:41;;;;;;;;;;;;;;;9.59;75.93;100793.56;5133246;28;19919;-67
2023/03/20 11:48:14;;;;;;;;;;;;;;;9.68;75.98;100798.94;5133129;28;20414;-63
2023/03/20 11:50:48;;;;;;;;;;;;;;;9.71;75.29;100788.81;5133286;28;19934;-69
2023/03/20 11:53:20;;;;;;;;;;;;;;;9.76;74.95;100791.84;5132885;28;20028;-69
2023/03/20 11:55:57;;;;;;;;;;;;;;;9.76;75.17;100791.00;5132347;28;19919;-72
2023/03/20 11:58:23;;;;;;;;;;;;;;;9.68;74.80;100783.81;5131462;28;20463;-68
2023/03/20 12:00:53;;;;;;;;;;;;;;;9.61;75.35;100772.13;5112714;28;19916;-69
2023/03/20 12:03:37;;;;;;;;;;;;;;;9.51;76.18;100774.88;5131594;28;19918;-68
2023/03/20 12:06:05;;;;;;;;;;;;;;;9.49;76.32;100784.00;5131533;28;20358;-69
2023/03/20 12:08:32;;;;;;;;;;;;;;;9.56;75.81;100775.25;5132384;28;20362;-70
2023/03/20 12:11:00;;;;;;;;;;;;;;;9.68;75.90;100777.66;5132989;28;19915;-69
2023/03/20 12:13:32;;;;;;;;;;;;;;;9.76;75.50;100767.06;5133208;28;19911;-70
2023/03/20 12:16:02;;;;;;;;;;;;;;;9.75;75.24;100768.88;5134581;28;19930;-71
2023/03/20 12:18:31;;;;;;;;;;;;;;;9.62;75.49;100764.00;5135669;28;19916;-70
2023/03/20 12:21:23;;;;;;;;;;;;;;;9.62;75.74;100764.00;5134858;28;20002;-69
2023/03/20 12:23:52;;;;;;;;;;;;;;;9.56;76.07;100764.63;5128707;28;19918;-70
2023/03/20 12:26:20;;;;;;;;;;;;;;;9.50;76.61;100759.06;5114483;28;19911;-69
2023/03/20 12:28:45;;;;;;;;;;;;;;;9.41;76.54;100760.84;5132849;28;19912;-69
2023/03/20 12:31:23;;;;;;;;;;;;;;;9.36;77.28;100754.34;5132867;28;19918;-69
2023/03/20 12:33:54;;;;;;;;;;;;;;;9.35;77.15;100753.50;5132919;28;20383;-69
2023/03/20 12:36:36;;;;;;;;;;;;;;;9.35;77.50;100750.00;5137912;28;19916;-70
2023/03/20 12:39:03;;;;;;;;;;;;;;;9.28;77.26;100744.50;5137313;28;19915;-69
2023/03/20 12:41:35;;;;;;;;;;;;;;;9.21;77.52;100736.28;5133641;28;19918;-69
2023/03/20 12:44:15;;;;;;;;;;;;;;;9.20;77.76;100737.25;5115236;27;19912;-69
2023/03/20 12:46:43;;;;;;;;;;;;;;;9.26;77.39;100733.19;5137030;27;20292;-69
2023/03/20 12:49:08;;;;;;;;;;;;;;;9.33;77.36;100736.88;5136706;27;19916;-68
2023/03/20 12:51:34;;;;;;;;;;;;;;;9.42;77.34;100729.78;5137495;27;19919;-68